x

Port Colborne (45142) Wave Buoy

2:00am - Sun 31st Jul 2016 All times are CDT. -5 hours from GMT.

  • Sig Wave height 1.3ft
  • Peak Period 3s
  • Wind
    13mph, 16mph gusts
  • Sea Temp 75°f
  • Air Temp 72°f
  • Sea Pressure 1014.9mb
  • Port Colborne
  • Port Colborne

More Historic Weather Station data

Upgrade to MSW Pro to gain access to the past 30 days of data for over 8000 Wavebouys and Weather Stations around the globe.

Join Pro

Comparision Forecast

View Surf forecast
   
Sun 07/31 2:00am 1.3ft 3s 13 16 mph 1014.9mb 75f 72f
1:00am 1.3ft 3s 16 18 mph 1014.8mb 75f 73f
12:00am 1.6ft 3s 16 18 mph 1015.3mb 75f 73f
Sat 07/30 11:00pm 1.6ft 4s 13 18 mph 1015.3mb 75f 73f
10:00pm 2ft 4s 18 20 mph 1015.4mb 75f 74f
9:00pm 2ft 4s 18 20 mph 1015.6mb 75f 74f
8:00pm 1.6ft 3s 18 22 mph 1015.3mb 75f 75f
7:00pm 1.6ft 3s 18 20 mph 1014.6mb 76f 76f
6:00pm 1.3ft 3s 16 18 mph 1014.6mb 76f 76f
5:00pm 1ft 3s 16 18 mph 1014.2mb 76f 77f
4:00pm 1ft 3s 13 16 mph 1014.2mb 76f 77f
3:00pm 1ft 3s 13 16 mph 1014.5mb 76f 76f
2:00pm 1.3ft 3s 13 16 mph 1014.9mb 76f 74f
1:00pm 1.3ft 3s 16 18 mph 1015.4mb 76f 73f
12:00pm 1ft 3s 16 18 mph 1015.9mb 76f 71f
11:00am 1ft 3s 13 16 mph 1016.2mb 75f 70f
10:00am 1ft 3s 11 13 mph 1016.4mb 75f 70f
9:00am 1ft 3s 11 13 mph 1016.4mb 74f 70f
8:00am 1.3ft 3s 9 11 mph 1016.3mb 75f 70f
7:00am 1.6ft 3s 13 18 mph 1015.8mb 75f 70f
6:00am 2ft 4s 16 18 mph 1015.6mb 75f 71f
5:00am 2ft 4s 18 20 mph 1014.8mb 75f 71f
4:00am 1.6ft 3s 22 25 mph 1014.1mb 75f 72f
3:00am 1ft 3s 20 22 mph 1014.1mb 75f 73f
2:00am 0.7ft 3s 16 18 mph 1014.7mb 75f 73f
1:00am 1ft 3s 11 13 mph 1014.7mb 76f 75f
12:00am 1ft 3s 13
mph
1014.8mb 76f 75f
Fri 07/29 11:00pm 1ft 3s 11 13 mph 1014.8mb 76f 76f
10:00pm 1ft 3s 11 13 mph 1015mb 76f 75f
9:00pm 1ft 3s 13
mph
1014.9mb 76f 76f
8:00pm 1ft 3s 13 16 mph 1014.3mb 76f 76f
7:00pm 1ft 3s 16 18 mph 1013.7mb 77f 77f
6:00pm 0.7ft 2s 13 16 mph 1013.4mb 77f 78f
5:00pm 0.3ft 2s 9 11 mph 1013.4mb 77f 79f
4:00pm 0.7ft 2s 7 9 mph 1013.5mb 77f 78f
3:00pm 0.3ft 2s 7 11 mph 1013.5mb 77f 78f
2:00pm 0.3ft 4s 9 13 mph 1013.6mb 78f 78f
1:00pm 0.3ft 4s 4 7 mph 1013.7mb 77f 76f
12:00pm 0.3ft 2s 4 7 mph 1013.9mb 76f 76f
11:00am 0.7ft 2s 7
mph
1014mb 76f 76f
10:00am 0.7ft 2s 9 11 mph 1013.9mb 76f 74f
9:00am 0.3ft 2s 9 11 mph 1013.7mb 75f 74f
8:00am 0.7ft 2s 9 11 mph 1013.7mb 75f 73f
7:00am 0.7ft 2s 11 13 mph 1013.3mb 75f 72f
6:00am 1ft 2s 11 13 mph 1012.9mb 75f 72f
5:00am 0.7ft 2s 11 13 mph 1012.8mb 75f 72f
4:00am 0.3ft 2s 13 16 mph 1012.5mb 75f 73f
3:00am 0.3ft 4s 11
mph
1012.4mb 74f 73f
2:00am 0.3ft 2s 7
mph
1012.6mb 75f 72f
1:00am 0.3ft 2s 13 18 mph 1012.4mb 75f 74f
12:00am 0.3ft 2s 4 7 mph 1012.1mb 75f 76f
Thu 07/28 11:00pm 0.3ft 2s 7 9 mph 1012mb 75f 76f
10:00pm 0.3ft 2s 9
mph
1012mb 76f 76f
9:00pm 0.3ft 2s 11 13 mph 1012.2mb 76f 77f
8:00pm  -  3s 9
mph
1011.8mb 76f 78f
7:00pm  -  2s 7 9 mph 1011.5mb 77f 78f
6:00pm  -  3s 4
mph
1011.4mb 77f 78f
5:00pm  -  2s 4 7 mph 1011.1mb 78f 78f
4:00pm 0.3ft 2s 4 7 mph 1011.1mb 78f 78f
3:00pm 0.3ft 4s  -  2 mph 1011.2mb 78f 81f
2:00pm 0.3ft 2s  -  mph 1011.9mb 78f 79f
1:00pm 0.3ft 3s 2 4 mph 1012.1mb 77f 76f
12:00pm 0.3ft 4s 4
mph
1012.5mb 76f 76f
11:00am 0.3ft 3s 2 4 mph 1012.8mb 76f 75f
10:00am 0.3ft 3s 2
mph
1013.1mb 76f 75f
9:00am 0.3ft 2s 2
mph
1013.3mb 75f 75f
8:00am 0.3ft 3s 4 7 mph 1013.4mb 75f 73f
7:00am 0.3ft 2s 4 7 mph 1013.4mb 75f 73f
6:00am 0.7ft 2s 4
mph
1013.2mb 74f 74f
5:00am 0.7ft 3s 7 9 mph 1013mb 74f 73f
4:00am 0.7ft 2s 2 4 mph 1012.9mb 74f 75f
3:00am 0.7ft 3s 7
mph
1012.4mb 74f 75f
2:00am 0.7ft 3s 9 11 mph 1012.3mb 74f 75f
1:00am 0.7ft 3s 7
mph
1012.9mb 75f 75f
12:00am 0.7ft 3s 4 7 mph 1013.3mb 75f 75f
Wed 07/27 11:00pm 1ft 3s 7 9 mph 1013.6mb 75f 76f
10:00pm 1ft 4s 9 11 mph 1013.5mb 75f 76f
9:00pm 1.3ft 4s 9 11 mph 1013.1mb 75f 76f
8:00pm 1.3ft 4s 9
mph
1013.4mb 75f 76f
7:00pm 1.6ft 4s 9 11 mph 1013.1mb 75f 76f
6:00pm 1.6ft 4s 11 13 mph 1012.8mb 75f 77f
5:00pm 2.5ft 4s 13
mph
1013mb 75f 77f
4:00pm 2.5ft 4s 16 18 mph 1013.2mb 75f 76f
3:00pm 2.5ft 4s 18 20 mph 1013.3mb 75f 76f
2:00pm 2.5ft 4s 18 20 mph 1014.1mb 75f 76f
1:00pm 2ft 4s 18 20 mph 1014.3mb 75f 76f
12:00pm 2ft 4s 16 18 mph 1014.9mb 75f 75f
11:00am 2ft 3s 16 18 mph 1015.1mb 75f 75f
10:00am 1.3ft 3s 16 20 mph 1015.4mb 75f 75f
9:00am 1.3ft 3s 13 16 mph 1015.4mb 75f 74f